createdAt,value
2022-10-20T00:00:27.886Z,4.60
2022-10-20T00:05:50.599Z,4.80
2022-10-20T00:10:57.110Z,6.10
2022-10-20T00:16:00.283Z,5.70
2022-10-20T00:21:14.800Z,5.80
2022-10-20T00:26:25.406Z,6.20
2022-10-20T00:31:29.415Z,3.80
2022-10-20T00:36:32.155Z,7.10
2022-10-20T00:41:34.963Z,5.90
2022-10-20T00:46:40.178Z,4.80
2022-10-20T00:51:42.868Z,6.60
2022-10-20T00:56:47.284Z,6.70
2022-10-20T01:01:50.122Z,5.70
2022-10-20T01:06:53.018Z,5.10
2022-10-20T01:12:23.485Z,6.40
2022-10-20T01:17:38.166Z,6.50
2022-10-20T01:23:05.820Z,5.80
2022-10-20T01:28:22.557Z,5.60
2022-10-20T01:33:41.517Z,6.40
2022-10-20T01:38:51.318Z,7.80
2022-10-20T01:43:54.355Z,7.00
2022-10-20T01:49:01.058Z,8.70
2022-10-20T01:54:03.848Z,5.70
2022-10-20T01:59:13.382Z,7.10
2022-10-20T02:04:15.988Z,9.40
2022-10-20T02:15:02.236Z,6.80
2022-10-20T02:20:07.046Z,7.70
2022-10-20T02:25:13.964Z,5.60
2022-10-20T02:30:18.209Z,5.70
2022-10-20T02:35:23.680Z,7.50
2022-10-20T02:40:26.503Z,5.70
2022-10-20T02:45:29.120Z,9.10
2022-10-20T02:50:31.865Z,9.50
2022-10-20T02:55:35.108Z,7.10
2022-10-20T03:00:38.092Z,8.20
2022-10-20T03:05:41.954Z,7.70
2022-10-20T03:10:44.571Z,8.10
2022-10-20T03:15:47.232Z,8.60
2022-10-20T03:20:53.648Z,7.90
2022-10-20T03:26:06.930Z,7.50
2022-10-20T03:31:09.689Z,9.00
2022-10-20T03:36:12.412Z,9.90
2022-10-20T03:41:15.104Z,9.30
2022-10-20T03:46:17.733Z,31.10
2022-10-20T03:51:20.456Z,25.10
2022-10-20T03:56:23.112Z,27.60
2022-10-20T04:01:31.281Z,21.00
2022-10-20T04:06:34.280Z,18.30
2022-10-20T04:11:37.430Z,17.30
2022-10-20T04:16:42.095Z,16.40
2022-10-20T04:21:44.782Z,18.80
2022-10-20T04:31:56.428Z,11.40
2022-10-20T04:36:59.075Z,13.50
2022-10-20T04:42:01.761Z,10.30
2022-10-20T04:47:04.509Z,10.90
2022-10-20T04:52:08.614Z,10.20
2022-10-20T04:57:11.301Z,8.30
2022-10-20T05:02:13.972Z,11.30
2022-10-20T05:07:16.697Z,12.10
2022-10-20T05:12:19.331Z,10.20
2022-10-20T05:17:21.992Z,8.90
2022-10-20T05:22:24.781Z,10.30
2022-10-20T05:27:28.561Z,8.40
2022-10-20T05:32:31.354Z,13.00
2022-10-20T05:37:35.484Z,12.80
2022-10-20T05:42:38.494Z,11.20
2022-10-20T05:47:42.896Z,10.90
2022-10-20T05:52:46.074Z,11.00
2022-10-20T05:57:52.154Z,11.40
2022-10-20T06:02:54.842Z,13.10
2022-10-20T06:07:57.641Z,11.90
2022-10-20T06:13:00.292Z,13.70
2022-10-20T06:18:03.285Z,13.30
2022-10-20T06:23:06.115Z,9.40
2022-10-20T06:28:08.833Z,13.10
2022-10-20T06:33:18.776Z,14.50
2022-10-20T06:38:21.486Z,14.80
2022-10-20T06:43:24.169Z,13.50
2022-10-20T06:48:27.385Z,20.20
2022-10-20T06:53:30.612Z,18.80
2022-10-20T06:58:37.511Z,21.00
2022-10-20T07:03:40.610Z,19.00
2022-10-20T07:08:43.624Z,17.00
2022-10-20T07:13:47.179Z,18.20
2022-10-20T07:18:50.110Z,18.30
2022-10-20T07:23:52.919Z,14.90
2022-10-20T07:28:58.164Z,16.70
2022-10-20T07:34:12.863Z,12.90
2022-10-20T07:39:16.278Z,11.40
2022-10-20T07:44:19.194Z,12.50
2022-10-20T07:54:45.138Z,14.30
2022-10-20T07:59:47.767Z,11.10
2022-10-20T08:04:50.767Z,13.20
2022-10-20T08:09:53.383Z,14.20
2022-10-20T08:14:56.119Z,15.80
2022-10-20T08:20:18.912Z,11.90
2022-10-20T08:25:22.360Z,11.90
2022-10-20T08:30:25.107Z,13.20
2022-10-20T08:35:28.178Z,12.30
2022-10-20T08:40:31.120Z,12.70
2022-10-20T08:45:38.206Z,11.40
2022-10-20T08:50:44.703Z,10.20
2022-10-20T08:55:47.465Z,12.40
2022-10-20T09:00:57.711Z,12.20
2022-10-20T09:06:16.947Z,17.00
2022-10-20T09:11:24.461Z,21.40
2022-10-20T09:16:40.797Z,21.10
2022-10-20T09:21:46.900Z,19.60
2022-10-20T09:26:59.616Z,22.60
2022-10-20T09:32:16.686Z,18.20
2022-10-20T09:37:25.635Z,22.60
2022-10-20T09:42:30.477Z,21.10
2022-10-20T09:47:34.012Z,20.50
2022-10-20T09:52:47.640Z,22.60
2022-10-20T09:57:50.655Z,21.90
2022-10-20T10:03:22.435Z,20.50
2022-10-20T10:08:42.182Z,20.10
2022-10-20T10:13:47.177Z,27.40
2022-10-20T10:19:05.042Z,23.60
2022-10-20T10:24:43.869Z,21.40
2022-10-20T10:29:46.553Z,14.10
2022-10-20T10:35:21.369Z,13.50
2022-10-20T10:40:42.135Z,12.70
2022-10-20T10:45:52.896Z,14.10
2022-10-20T10:51:06.678Z,12.80
2022-10-20T10:56:42.926Z,13.00
2022-10-20T11:02:27.455Z,13.30
2022-10-20T11:08:08.564Z,16.10
2022-10-20T11:13:43.586Z,9.30
2022-10-20T11:19:14.658Z,10.90
2022-10-20T11:24:42.822Z,11.50
2022-10-20T11:29:55.251Z,12.70
2022-10-20T11:35:35.095Z,15.00
2022-10-20T11:40:45.474Z,8.30
2022-10-20T11:45:54.655Z,13.40
2022-10-20T11:51:29.922Z,8.50
2022-10-20T11:57:06.671Z,11.20
2022-10-20T12:02:47.000Z,10.10
2022-10-20T12:08:28.233Z,8.40
2022-10-20T12:14:02.362Z,6.50
2022-10-20T12:19:06.992Z,8.70
2022-10-20T12:24:39.110Z,7.00
2022-10-20T12:29:45.746Z,3.20
2022-10-20T12:34:50.604Z,4.30
2022-10-20T12:39:55.368Z,4.60
2022-10-20T12:45:20.539Z,4.00
2022-10-20T12:50:47.056Z,4.30
2022-10-20T12:56:09.118Z,4.30
2022-10-20T13:01:12.413Z,4.20
2022-10-20T13:06:24.760Z,5.10
2022-10-20T13:11:59.968Z,4.90
2022-10-20T13:17:20.871Z,5.60
2022-10-20T13:22:43.149Z,6.30
2022-10-20T13:27:49.198Z,4.60
2022-10-20T13:33:11.488Z,6.00
2022-10-20T13:38:31.427Z,4.50
2022-10-20T13:44:05.674Z,6.00
2022-10-20T13:49:26.525Z,5.10
2022-10-20T13:54:33.009Z,4.90
2022-10-20T13:59:39.508Z,5.40
2022-10-20T14:04:44.680Z,7.50
2022-10-20T14:09:49.310Z,4.40
2022-10-20T14:14:59.393Z,6.10
2022-10-20T14:20:29.291Z,7.60
2022-10-20T14:25:32.049Z,6.20
2022-10-20T14:30:38.722Z,6.10
2022-10-20T14:35:55.955Z,7.10
2022-10-20T14:40:58.885Z,7.00
2022-10-20T14:46:02.433Z,5.90
2022-10-20T14:51:28.361Z,6.60
2022-10-20T14:56:31.191Z,5.90
2022-10-20T15:01:33.921Z,4.60
2022-10-20T15:06:36.731Z,6.20
2022-10-20T15:11:39.526Z,6.40
2022-10-20T15:16:45.576Z,6.50
2022-10-20T15:21:48.413Z,6.80
2022-10-20T15:26:51.487Z,6.20
2022-10-20T15:31:54.252Z,8.90
2022-10-20T15:36:57.038Z,7.70
2022-10-20T15:41:59.795Z,4.70
2022-10-20T15:47:02.590Z,8.60
2022-10-20T15:52:05.425Z,6.10
2022-10-20T15:57:08.209Z,4.60
2022-10-20T16:02:13.189Z,4.90
2022-10-20T16:07:15.961Z,5.60
2022-10-20T16:12:19.177Z,9.00
2022-10-20T16:17:21.921Z,6.60
2022-10-20T16:22:26.522Z,7.10
2022-10-20T16:27:31.237Z,6.00
2022-10-20T16:32:35.463Z,5.70
2022-10-20T16:37:39.134Z,10.30
2022-10-20T16:42:42.199Z,19.90
2022-10-20T16:47:45.095Z,18.50
2022-10-20T16:52:48.452Z,20.50
2022-10-20T16:57:51.872Z,12.10
2022-10-20T17:02:57.640Z,11.70
2022-10-20T17:08:00.530Z,13.20
2022-10-20T17:13:03.413Z,15.90
2022-10-20T17:18:06.273Z,15.30
2022-10-20T17:23:09.045Z,17.00
2022-10-20T17:28:11.841Z,17.80
2022-10-20T17:33:14.802Z,22.00
2022-10-20T17:38:17.842Z,21.40
2022-10-20T17:43:21.271Z,16.50
2022-10-20T17:48:24.317Z,17.80
2022-10-20T17:53:27.254Z,21.00
2022-10-20T17:58:30.077Z,28.90
2022-10-20T18:03:32.831Z,26.00
2022-10-20T18:08:35.787Z,31.60
2022-10-20T18:13:38.668Z,25.20
2022-10-20T18:18:41.532Z,17.20
2022-10-20T18:23:48.403Z,21.10
2022-10-20T18:28:51.289Z,26.20
2022-10-20T18:34:04.434Z,22.10
2022-10-20T18:39:10.227Z,20.90
2022-10-20T18:44:16.089Z,22.90
2022-10-20T18:49:20.615Z,20.90
2022-10-20T18:54:24.384Z,20.00
2022-10-20T18:59:28.515Z,21.90
2022-10-20T19:04:31.936Z,25.00
2022-10-20T19:09:34.807Z,19.90
2022-10-20T19:14:37.533Z,21.10
2022-10-20T19:19:44.684Z,16.70
2022-10-20T19:24:47.648Z,17.80
2022-10-20T19:29:50.379Z,17.40
2022-10-20T19:34:53.245Z,17.90
2022-10-20T19:39:55.975Z,18.00
2022-10-20T19:44:58.672Z,16.60
2022-10-20T19:50:01.813Z,22.30
2022-10-20T19:55:05.045Z,15.90
2022-10-20T20:00:08.657Z,19.90
2022-10-20T20:05:11.374Z,23.90
2022-10-20T20:10:14.308Z,28.10
2022-10-20T20:15:17.151Z,33.20
2022-10-20T20:20:21.631Z,41.00
2022-10-20T20:25:25.610Z,47.00
2022-10-20T20:30:28.537Z,41.10
2022-10-20T20:35:31.411Z,35.30
2022-10-20T20:40:34.210Z,45.30
2022-10-20T20:45:39.932Z,50.00
2022-10-20T20:50:57.012Z,46.30
2022-10-20T20:56:11.004Z,45.60
2022-10-20T21:01:17.225Z,46.20
2022-10-20T21:06:22.976Z,49.00
2022-10-20T21:11:31.594Z,47.50
2022-10-20T21:16:38.917Z,52.20
2022-10-20T21:21:50.598Z,52.10
2022-10-20T21:26:53.932Z,56.30
2022-10-20T21:31:58.125Z,62.10
2022-10-20T21:37:00.901Z,56.50
2022-10-20T21:42:03.771Z,67.00
2022-10-20T21:47:06.538Z,57.10
2022-10-20T21:52:09.375Z,62.00
2022-10-20T21:57:12.115Z,56.80
2022-10-20T22:02:15.368Z,60.10
2022-10-20T22:07:18.396Z,58.80
2022-10-20T22:12:21.163Z,56.00
2022-10-20T22:17:23.971Z,60.10
2022-10-20T22:22:30.847Z,56.80
2022-10-20T22:27:42.458Z,53.20
2022-10-20T22:32:45.472Z,47.80
2022-10-20T22:37:48.461Z,43.80
2022-10-20T22:42:51.209Z,47.70
2022-10-20T22:47:53.930Z,42.10
2022-10-20T22:52:56.698Z,38.50
2022-10-20T23:03:02.261Z,31.20
2022-10-20T23:08:05.946Z,31.00
2022-10-20T23:13:08.691Z,26.70
2022-10-20T23:18:11.468Z,26.80
2022-10-20T23:23:14.228Z,28.50
2022-10-20T23:28:17.688Z,22.80
2022-10-20T23:33:20.541Z,23.10
2022-10-20T23:38:23.277Z,21.60
2022-10-20T23:43:26.113Z,21.90
2022-10-20T23:48:28.903Z,18.70
2022-10-20T23:53:31.745Z,19.60
2022-10-20T23:58:35.102Z,22.80
